Eielson AFB, Alaska
Current Conditions -  °F | °C
As of 11:13 PM on Friday 24 Oct 2014 (Local Time) from PAEI Reporting Station
Light Snow Light Snow  
Wind Chill: 21°   Ceiling: 3300
Heat Index: 21°   Visibility: 4mi
Dew Point: 19°   Wind: 2mph
Humidity: 93%   Direction: NA
Pressure: 29.98"   Gusts: NA
Location:  64.68°N, 147.09°W
Report Text: PAEI 250713Z AUTO VRB02KT 4SM R32/4500FT -SN BR FEW025 OVC033 M06/M07 A2998 RMK AO2 CIG 022 RWY14 $
Loading
Personal Weather Stations






























Interactive Weather Map
Tropical Storm Tracking
New forecast layout! Learn more

10-Day Weather Forecast

Advertisements
Track Severe Weather on mobile